Time;durP1;ratioP1;P1;durP2;ratioP2;P2;SDS_P1;SDS_P2;PMS_P1;PMS_P2;Temp;Humidity;BMP_temperature;BMP_pressure;BME280_temperature;BME280_humidity;BME280_pressure;Samples;Min_cycle;Max_cycle;Signal;HPM_P1;HPM_P2
2022/05/26 00:02:25;;;;;;;1.40;0.60;;;11.30;99.70;;;;;;4987801;28;20565;-66
2022/05/26 00:04:51;;;;;;;1.70;0.70;;;11.30;99.90;;;;;;4987662;28;20399;-65
2022/05/26 00:07:17;;;;;;;1.63;0.73;;;11.30;99.90;;;;;;4987672;28;20192;-66
2022/05/26 00:09:43;;;;;;;1.50;0.60;;;11.20;99.90;;;;;;4989774;28;20445;-66
2022/05/26 00:12:10;;;;;;;2.80;1.37;;;11.20;99.90;;;;;;4987623;28;20191;-65
2022/05/26 00:14:36;;;;;;;5.87;0.73;;;11.20;99.90;;;;;;4987224;28;20526;-65
2022/05/26 00:17:02;;;;;;;1.70;0.70;;;11.20;99.90;;;;;;4987103;28;20970;-66
2022/05/26 00:19:28;;;;;;;1.73;0.60;;;11.20;99.90;;;;;;4987842;28;20457;-66
2022/05/26 00:21:53;;;;;;;3.80;0.90;;;11.30;99.90;;;;;;4990963;28;20191;-66
2022/05/26 00:24:20;;;;;;;1.50;0.57;;;11.30;99.90;;;;;;4987322;28;20216;-66
2022/05/26 00:26:46;;;;;;;1.97;0.60;;;11.30;99.90;;;;;;4985811;28;20275;-65
2022/05/26 00:29:12;;;;;;;1.67;0.73;;;11.30;99.90;;;;;;4988752;28;20442;-65
2022/05/26 00:31:38;;;;;;;1.30;0.50;;;11.40;99.90;;;;;;4989892;28;20422;-65
2022/05/26 00:34:04;;;;;;;1.60;0.63;;;11.40;99.90;;;;;;4987118;28;20919;-65
2022/05/26 00:36:42;;;;;;;2.20;0.90;;;11.40;99.90;;;;;;4987894;28;20545;-66
2022/05/26 00:39:18;;;;;;;2.13;0.60;;;11.40;99.90;;;;;;4990009;28;20593;-65
2022/05/26 00:41:50;;;;;;;13.77;0.83;;;11.40;99.90;;;;;;4977796;28;20872;-66
2022/05/26 00:44:16;;;;;;;2.77;0.70;;;11.30;99.90;;;;;;4988426;28;20468;-65
2022/05/26 00:46:51;;;;;;;8.93;0.90;;;11.40;99.90;;;;;;4986703;28;20427;-66
2022/05/26 00:49:26;;;;;;;1.50;0.70;;;11.30;99.90;;;;;;4986558;28;20517;-66
2022/05/26 00:51:52;;;;;;;2.27;1.00;;;11.30;99.90;;;;;;4984669;28;20480;-65
2022/05/26 00:54:22;;;;;;;1.70;0.70;;;11.30;99.90;;;;;;4987321;28;20434;-65
2022/05/26 00:56:51;;;;;;;1.30;0.50;;;11.20;99.90;;;;;;4987959;28;20484;-65
2022/05/26 00:59:22;;;;;;;10.67;0.80;;;11.20;99.90;;;;;;4984617;28;20430;-66
2022/05/26 01:01:48;;;;;;;1.73;0.70;;;11.10;99.90;;;;;;4987994;28;20436;-66
2022/05/26 01:04:18;;;;;;;1.27;0.50;;;11.10;99.90;;;;;;4994681;28;20564;-66
2022/05/26 01:06:52;;;;;;;1.93;0.93;;;11.00;99.90;;;;;;4988980;28;20439;-65
2022/05/26 01:09:20;;;;;;;1.63;0.77;;;11.00;99.90;;;;;;4994925;28;21250;-65
2022/05/26 01:11:45;;;;;;;1.50;0.60;;;10.90;99.90;;;;;;4991321;28;20430;-66
2022/05/26 01:14:18;;;;;;;4.80;0.60;;;10.90;99.90;;;;;;4996779;28;20434;-66
2022/05/26 01:17:07;;;;;;;1.60;0.60;;;10.90;99.90;;;;;;4990026;28;20229;-66
2022/05/26 01:19:55;;;;;;;2.17;0.90;;;10.90;99.90;;;;;;4988533;28;20803;-65
2022/05/26 01:22:46;;;;;;;1.70;0.70;;;10.90;99.90;;;;;;4995446;28;20430;-65
2022/05/26 01:25:39;;;;;;;3.70;1.20;;;10.90;99.90;;;;;;4987941;28;20967;-66
2022/05/26 01:28:23;;;;;;;2.83;0.70;;;10.90;99.90;;;;;;4986545;28;20425;-66
2022/05/26 01:30:58;;;;;;;1.50;0.47;;;10.90;99.90;;;;;;4987853;28;20455;-66
2022/05/26 01:33:56;;;;;;;6.30;0.70;;;10.90;99.90;;;;;;4990422;28;20427;-66
2022/05/26 01:36:33;;;;;;;2.40;0.80;;;10.90;99.90;;;;;;4990076;28;20997;-66
2022/05/26 01:39:14;;;;;;;1.63;0.70;;;10.80;99.90;;;;;;4987575;28;20462;-65
2022/05/26 01:41:52;;;;;;;6.50;0.70;;;10.90;99.90;;;;;;4976018;28;20418;-65
2022/05/26 01:44:42;;;;;;;2.77;0.70;;;10.90;99.90;;;;;;4989409;28;20484;-66
2022/05/26 01:47:28;;;;;;;2.03;0.77;;;11.00;99.90;;;;;;4990932;28;20698;-65
2022/05/26 01:50:01;;;;;;;3.97;0.97;;;11.00;99.90;;;;;;4991834;28;20411;-66
2022/05/26 01:52:41;;;;;;;3.23;0.70;;;11.00;99.90;;;;;;4987023;28;20418;-66
2022/05/26 01:55:30;;;;;;;1.40;0.60;;;11.00;99.90;;;;;;4989304;28;20473;-65
2022/05/26 01:58:09;;;;;;;2.43;0.60;;;11.00;99.90;;;;;;4986989;28;20431;-65
2022/05/26 02:00:37;;;;;;;3.57;0.80;;;11.00;99.90;;;;;;4988133;28;20465;-65
2022/05/26 02:03:07;;;;;;;2.07;0.70;;;11.00;99.90;;;;;;4990984;28;20478;-65
2022/05/26 02:05:48;;;;;;;10.77;0.87;;;11.00;99.90;;;;;;4991200;28;21038;-66
2022/05/26 02:08:25;;;;;;;1.30;0.50;;;11.10;99.90;;;;;;4995702;28;20419;-65
2022/05/26 02:11:00;;;;;;;1.30;0.50;;;11.20;99.90;;;;;;4991006;28;20565;-66
2022/05/26 02:13:29;;;;;;;4.00;0.97;;;11.20;99.90;;;;;;4991726;28;20550;-66
2022/05/26 02:16:02;;;;;;;1.30;0.50;;;11.20;99.90;;;;;;4990955;28;21076;-66
2022/05/26 02:18:34;;;;;;;1.97;0.77;;;11.40;99.90;;;;;;4990430;28;20415;-66
2022/05/26 02:21:17;;;;;;;2.20;0.70;;;11.40;99.90;;;;;;4990819;28;20426;-66
2022/05/26 02:23:48;;;;;;;1.80;0.60;;;11.40;99.70;;;;;;4985394;28;20468;-65
2022/05/26 02:26:14;;;;;;;1.20;0.50;;;11.50;99.50;;;;;;4988748;28;20554;-66
2022/05/26 02:31:27;;;;;;;1.80;0.70;;;11.50;99.50;;;;;;4988552;28;20211;-65
2022/05/26 02:33:57;;;;;;;2.00;1.00;;;11.60;99.80;;;;;;4994284;28;20434;-65
2022/05/26 02:36:26;;;;;;;2.63;0.90;;;11.50;99.90;;;;;;4993220;28;20454;-66
2022/05/26 02:38:52;;;;;;;1.40;0.50;;;11.50;99.90;;;;;;4990704;28;20979;-65
2022/05/26 02:41:18;;;;;;;2.00;0.70;;;11.50;99.90;;;;;;4984594;28;20511;-66
2022/05/26 02:43:44;;;;;;;1.30;0.53;;;11.40;99.90;;;;;;4990412;28;20318;-65
2022/05/26 02:46:35;;;;;;;1.60;0.60;;;11.40;99.90;;;;;;4993761;28;20651;-65
2022/05/26 02:49:23;;;;;;;2.53;0.80;;;11.40;99.90;;;;;;4987042;28;20238;-65
2022/05/26 02:52:14;;;;;;;3.67;0.90;;;11.30;99.90;;;;;;4989802;28;20427;-66
2022/05/26 02:54:57;;;;;;;1.30;0.50;;;11.30;99.90;;;;;;4984292;28;20464;-65
2022/05/26 02:57:37;;;;;;;3.03;0.67;;;11.20;99.90;;;;;;4987687;28;20449;-65
2022/05/26 03:00:13;;;;;;;1.60;0.80;;;11.20;99.90;;;;;;4987739;28;20460;-65
2022/05/26 03:02:51;;;;;;;1.53;0.77;;;11.20;99.90;;;;;;4992395;28;20481;-66
2022/05/26 03:05:24;;;;;;;2.87;0.80;;;11.10;99.90;;;;;;4989701;28;20479;-66
2022/05/26 03:08:00;;;;;;;2.90;0.93;;;10.90;99.90;;;;;;4989847;28;21082;-65
2022/05/26 03:10:28;;;;;;;2.20;1.10;;;10.90;99.90;;;;;;4998127;28;20450;-65
2022/05/26 03:12:56;;;;;;;2.37;0.80;;;10.90;99.90;;;;;;4994661;28;20431;-66
2022/05/26 03:15:21;;;;;;;1.60;0.70;;;10.90;99.90;;;;;;5000264;28;20474;-65
2022/05/26 03:17:47;;;;;;;2.47;0.60;;;10.90;99.90;;;;;;4995659;28;20902;-65
2022/05/26 03:20:13;;;;;;;2.40;0.70;;;10.90;99.90;;;;;;4994530;28;20198;-66
2022/05/26 03:22:39;;;;;;;1.30;0.60;;;10.90;99.90;;;;;;4996838;28;20202;-66
2022/05/26 03:25:06;;;;;;;1.80;0.63;;;10.90;99.90;;;;;;4994709;28;20215;-65
2022/05/26 03:27:32;;;;;;;2.30;0.97;;;10.90;99.90;;;;;;4987847;28;20179;-65
2022/05/26 03:29:57;;;;;;;1.50;0.77;;;10.90;99.90;;;;;;4992392;28;20430;-65
2022/05/26 03:32:23;;;;;;;1.30;0.60;;;10.90;99.90;;;;;;4989490;28;20430;-66
2022/05/26 03:43:04;;;;;;;2.00;0.90;;;10.80;99.90;;;;;;4986109;28;20425;-66
2022/05/26 03:45:33;;;;;;;1.60;0.70;;;10.80;99.90;;;;;;4988924;28;20510;-66
2022/05/26 03:47:59;;;;;;;2.30;0.70;;;10.90;99.90;;;;;;4989092;28;20441;-66
2022/05/26 03:50:25;;;;;;;1.40;0.60;;;10.90;99.90;;;;;;4989268;28;20426;-65
2022/05/26 03:52:51;;;;;;;1.37;0.57;;;11.00;99.90;;;;;;4987900;28;20442;-65
2022/05/26 03:55:21;;;;;;;3.10;1.03;;;11.00;99.90;;;;;;4988793;28;20242;-65
2022/05/26 03:57:47;;;;;;;1.37;0.60;;;11.00;99.90;;;;;;4988780;28;20511;-66
2022/05/26 04:00:16;;;;;;;1.40;0.60;;;11.00;99.90;;;;;;4987891;28;20489;-66
2022/05/26 04:02:42;;;;;;;1.60;0.77;;;11.00;99.90;;;;;;4989890;28;20829;-66
2022/05/26 04:05:09;;;;;;;3.93;1.30;;;11.10;99.90;;;;;;4994209;28;20482;-65
2022/05/26 04:07:35;;;;;;;2.10;0.83;;;11.10;99.90;;;;;;4991514;28;20825;-66
2022/05/26 04:10:09;;;;;;;1.20;0.60;;;11.10;99.90;;;;;;4996988;28;20429;-66
2022/05/26 04:12:36;;;;;;;2.00;0.60;;;11.10;99.90;;;;;;4992201;28;20270;-65
2022/05/26 04:15:04;;;;;;;1.50;0.60;;;11.10;99.90;;;;;;4989267;28;20438;-65
2022/05/26 04:17:30;;;;;;;1.30;0.60;;;11.20;99.90;;;;;;4993184;28;20435;-66
2022/05/26 04:19:56;;;;;;;2.23;0.60;;;11.30;99.90;;;;;;4989094;28;20467;-66
2022/05/26 04:22:23;;;;;;;1.70;0.77;;;11.40;99.90;;;;;;4988267;28;20279;-65
2022/05/26 04:24:53;;;;;;;1.60;0.50;;;11.30;99.90;;;;;;4988607;28;20270;-66
2022/05/26 04:27:20;;;;;;;1.37;0.60;;;11.30;99.90;;;;;;4986716;28;20419;-65
2022/05/26 04:29:46;;;;;;;5.63;0.70;;;11.40;99.90;;;;;;4988309;28;20477;-66
2022/05/26 04:32:12;;;;;;;2.13;0.70;;;11.40;99.90;;;;;;4991004;28;20480;-66
2022/05/26 04:34:39;;;;;;;1.60;0.80;;;11.40;99.90;;;;;;4988320;28;20419;-65
2022/05/26 04:37:05;;;;;;;12.53;1.37;;;11.40;99.90;;;;;;4996236;28;20470;-65
2022/05/26 04:39:31;;;;;;;1.90;0.80;;;11.50;99.90;;;;;;4988192;28;20765;-65
2022/05/26 04:41:59;;;;;;;1.63;0.70;;;11.50;99.90;;;;;;4979571;28;20427;-66
2022/05/26 04:44:28;;;;;;;1.83;1.00;;;11.60;99.90;;;;;;4988654;28;20462;-65
2022/05/26 04:46:53;;;;;;;1.70;0.70;;;11.60;99.90;;;;;;4984127;28;20439;-66
2022/05/26 04:49:19;;;;;;;3.60;1.00;;;11.60;99.90;;;;;;4987598;28;20419;-65
2022/05/26 04:51:45;;;;;;;2.60;0.80;;;11.70;99.90;;;;;;4987702;28;20238;-65
2022/05/26 04:54:10;;;;;;;1.90;0.80;;;11.70;99.90;;;;;;4987093;28;20226;-65
2022/05/26 04:56:36;;;;;;;1.90;0.90;;;11.70;99.90;;;;;;4987468;28;20180;-65
2022/05/26 04:59:04;;;;;;;2.57;0.80;;;11.80;99.90;;;;;;4988146;28;20251;-65
2022/05/26 05:01:30;;;;;;;3.73;0.80;;;11.80;99.90;;;;;;4987816;28;20204;-65
2022/05/26 05:03:55;;;;;;;1.30;0.60;;;11.90;99.90;;;;;;4993165;28;20487;-66
2022/05/26 05:06:21;;;;;;;2.73;0.60;;;12.00;99.90;;;;;;4988931;28;20191;-66
2022/05/26 05:08:47;;;;;;;2.03;0.53;;;12.00;99.90;;;;;;4988015;28;20188;-65
2022/05/26 05:11:12;;;;;;;2.33;1.00;;;11.90;99.90;;;;;;4987719;28;20212;-66
2022/05/26 05:13:38;;;;;;;1.30;0.60;;;12.00;99.90;;;;;;4987608;28;20191;-66
2022/05/26 05:16:30;;;;;;;2.70;0.93;;;12.10;99.90;;;;;;4987874;28;20215;-65
2022/05/26 05:18:56;;;;;;;1.40;0.60;;;12.20;99.90;;;;;;4983648;28;21103;-65
2022/05/26 05:21:47;;;;;;;2.27;0.83;;;12.20;99.90;;;;;;4987972;28;20433;-66
2022/05/26 05:24:24;;;;;;;1.80;0.60;;;12.30;99.90;;;;;;4988042;28;20458;-66
2022/05/26 05:26:53;;;;;;;1.30;0.60;;;12.30;99.90;;;;;;4982024;28;20429;-65
2022/05/26 05:29:25;;;;;;;1.87;0.70;;;12.50;99.60;;;;;;4987811;28;20502;-65
2022/05/26 05:31:57;;;;;;;1.83;0.80;;;12.60;99.50;;;;;;4989218;28;20451;-65
2022/05/26 05:34:33;;;;;;;1.50;0.60;;;12.60;99.30;;;;;;4988041;28;20415;-65
2022/05/26 05:36:59;;;;;;;1.70;0.60;;;12.70;99.00;;;;;;4988875;28;20418;-65
2022/05/26 05:39:25;;;;;;;1.40;0.67;;;12.70;99.10;;;;;;4988299;28;20511;-65
2022/05/26 05:41:54;;;;;;;2.90;0.70;;;12.80;99.20;;;;;;4984243;28;20934;-68
2022/05/26 05:44:20;;;;;;;1.30;0.60;;;12.90;99.10;;;;;;4987692;28;20508;-65
2022/05/26 05:46:57;;;;;;;1.30;0.57;;;12.90;99.00;;;;;;4985059;28;20433;-65
2022/05/26 05:49:27;;;;;;;1.60;0.63;;;13.00;99.10;;;;;;4987584;28;20418;-65
2022/05/26 05:51:54;;;;;;;1.50;0.60;;;13.10;98.70;;;;;;4986779;28;20423;-65
2022/05/26 05:54:20;;;;;;;1.33;0.60;;;13.30;98.50;;;;;;4989848;28;20505;-64
2022/05/26 05:56:47;;;;;;;2.53;0.70;;;13.30;98.50;;;;;;4987467;28;20425;-64
2022/05/26 05:59:13;;;;;;;1.30;0.57;;;13.30;97.90;;;;;;4986122;28;20427;-66
2022/05/26 06:01:39;;;;;;;1.40;0.50;;;13.40;97.80;;;;;;4987122;28;20920;-64
2022/05/26 06:04:06;;;;;;;1.40;0.53;;;13.50;98.20;;;;;;4989975;28;20481;-64
2022/05/26 06:06:40;;;;;;;7.97;0.80;;;13.50;97.90;;;;;;4987365;28;20441;-65
2022/05/26 06:09:08;;;;;;;1.77;0.70;;;13.60;97.20;;;;;;4987842;28;20970;-65
2022/05/26 06:11:33;;;;;;;2.80;0.70;;;13.70;97.10;;;;;;4987891;28;20457;-64
2022/05/26 06:14:00;;;;;;;1.60;0.80;;;13.80;96.90;;;;;;4991213;28;20828;-65
2022/05/26 06:16:27;;;;;;;2.23;0.70;;;13.90;97.10;;;;;;4986825;28;20186;-64
2022/05/26 06:18:53;;;;;;;10.60;1.10;;;14.10;96.60;;;;;;4988560;28;20465;-64
2022/05/26 06:21:19;;;;;;;1.37;0.60;;;14.20;96.20;;;;;;4987119;28;20418;-65
2022/05/26 06:23:45;;;;;;;3.90;0.70;;;14.30;96.20;;;;;;4987720;28;20207;-65
2022/05/26 06:26:11;;;;;;;1.40;0.70;;;14.30;95.90;;;;;;4985798;28;20474;-64
2022/05/26 06:31:22;;;;;;;1.30;0.50;;;14.40;95.80;;;;;;4989777;28;20187;-65
2022/05/26 06:37:13;;;;;;;1.70;0.67;;;15.00;95.30;;;;;;4987050;28;20526;-64
2022/05/26 06:39:28;;;;;;;1.50;0.70;;;15.20;94.50;;;;;;4985962;28;20415;-64
2022/05/26 06:42:15;;;;;;;6.27;1.03;;;15.30;94.30;;;;;;4986682;28;20453;-64
2022/05/26 06:44:42;;;;;;;2.70;0.60;;;15.40;93.90;;;;;;4987094;28;20466;-64
2022/05/26 06:47:16;;;;;;;1.40;0.50;;;15.50;93.90;;;;;;4988772;28;20451;-64
2022/05/26 06:49:41;;;;;;;1.50;0.80;;;15.70;93.30;;;;;;4987350;28;20505;-65
2022/05/26 06:52:08;;;;;;;1.70;0.60;;;15.80;93.30;;;;;;4988602;28;20959;-65
2022/05/26 06:54:36;;;;;;;2.67;0.60;;;15.90;92.90;;;;;;4990163;28;20188;-65
2022/05/26 06:57:03;;;;;;;2.23;0.63;;;16.00;92.90;;;;;;4986563;28;20434;-65
2022/05/26 06:59:29;;;;;;;7.07;1.07;;;16.10;92.40;;;;;;4990539;28;20457;-64
2022/05/26 07:01:55;;;;;;;2.10;0.70;;;16.30;92.70;;;;;;4990712;28;20896;-65
2022/05/26 07:04:21;;;;;;;2.07;0.70;;;16.40;92.80;;;;;;4998467;28;20215;-65
2022/05/26 07:06:49;;;;;;;2.80;0.70;;;16.40;92.10;;;;;;4989028;28;20195;-65
2022/05/26 07:09:15;;;;;;;1.60;0.67;;;16.50;92.30;;;;;;4989288;28;20466;-65
2022/05/26 07:11:40;;;;;;;2.30;0.60;;;16.40;92.70;;;;;;4991702;28;20784;-65
2022/05/26 07:14:07;;;;;;;3.10;0.60;;;16.50;91.80;;;;;;4988478;28;20196;-65
2022/05/26 07:16:33;;;;;;;1.33;0.63;;;16.40;92.10;;;;;;4995579;28;20241;-65
2022/05/26 07:18:59;;;;;;;2.00;0.80;;;16.40;91.70;;;;;;4993123;28;20434;-65
2022/05/26 07:21:24;;;;;;;3.07;0.70;;;16.40;91.80;;;;;;4989830;28;20415;-65
2022/05/26 07:23:50;;;;;;;1.93;0.90;;;16.50;91.40;;;;;;4989716;28;20208;-65
2022/05/26 07:26:17;;;;;;;1.40;0.70;;;16.40;91.90;;;;;;4988806;28;20204;-65
2022/05/26 07:28:43;;;;;;;1.40;0.50;;;16.30;91.00;;;;;;4989716;28;20175;-65
2022/05/26 07:31:11;;;;;;;1.53;0.70;;;16.30;91.50;;;;;;4989048;28;20434;-65
2022/05/26 07:33:37;;;;;;;2.30;0.70;;;16.30;91.70;;;;;;4993027;28;20438;-65
2022/05/26 07:36:03;;;;;;;2.37;1.00;;;16.40;90.50;;;;;;4994271;28;20418;-65
2022/05/26 07:41:22;;;;;;;2.17;0.60;;;16.30;90.50;;;;;;4980866;28;20520;-65
2022/05/26 07:43:52;;;;;;;2.33;0.87;;;16.30;90.70;;;;;;4987605;28;20493;-65
2022/05/26 07:46:20;;;;;;;1.40;0.60;;;16.30;91.50;;;;;;4989017;28;20419;-65
2022/05/26 07:48:47;;;;;;;2.30;0.80;;;16.50;91.40;;;;;;4989130;28;20437;-65
2022/05/26 07:51:13;;;;;;;2.60;0.53;;;16.60;91.20;;;;;;4988194;28;20473;-65
2022/05/26 07:53:38;;;;;;;3.93;0.70;;;16.90;91.00;;;;;;4988222;28;20419;-65
2022/05/26 07:56:04;;;;;;;2.27;0.60;;;17.20;89.10;;;;;;4988725;28;20180;-65
2022/05/26 07:58:30;;;;;;;1.40;0.50;;;17.40;89.30;;;;;;4991078;28;20507;-65
2022/05/26 08:00:57;;;;;;;1.40;0.57;;;17.60;87.40;;;;;;4984356;28;20463;-65
2022/05/26 08:03:22;;;;;;;1.70;0.63;;;17.70;87.80;;;;;;4982960;28;20430;-65
2022/05/26 08:05:48;;;;;;;1.30;0.50;;;17.70;89.40;;;;;;4981990;28;20289;-65
2022/05/26 08:08:15;;;;;;;1.30;0.50;;;17.90;87.20;;;;;;4987114;28;20184;-65
2022/05/26 08:10:40;;;;;;;2.40;0.60;;;17.90;87.80;;;;;;4988565;28;20202;-65
2022/05/26 08:13:06;;;;;;;1.83;0.50;;;17.90;86.50;;;;;;4988467;28;20426;-65
2022/05/26 08:15:33;;;;;;;2.70;0.70;;;17.80;86.80;;;;;;4988335;28;20206;-65
2022/05/26 08:17:59;;;;;;;2.30;0.70;;;17.90;86.30;;;;;;4988250;28;20330;-65
2022/05/26 08:20:25;;;;;;;2.10;0.90;;;18.00;87.30;;;;;;4988290;28;20426;-65
2022/05/26 08:22:51;;;;;;;1.40;0.50;;;17.90;87.80;;;;;;4988706;28;20202;-65
2022/05/26 08:25:16;;;;;;;4.80;0.70;;;17.90;87.50;;;;;;4987633;28;20254;-65
2022/05/26 08:27:42;;;;;;;6.57;1.10;;;18.00;87.20;;;;;;4990537;28;20204;-64
2022/05/26 08:30:08;;;;;;;1.50;0.60;;;18.00;87.60;;;;;;4987524;28;20184;-65
2022/05/26 08:32:34;;;;;;;1.60;0.73;;;17.90;85.90;;;;;;4991769;28;20609;-65
2022/05/26 08:35:04;;;;;;;3.53;0.53;;;17.90;86.30;;;;;;4995159;28;20442;-65
2022/05/26 08:37:29;;;;;;;1.83;0.50;;;18.00;86.20;;;;;;4992865;28;20649;-65
2022/05/26 08:39:55;;;;;;;1.30;0.50;;;17.90;87.50;;;;;;4993957;28;20882;-65
2022/05/26 08:42:25;;;;;;;1.87;0.60;;;18.00;88.80;;;;;;4986933;28;20190;-65
2022/05/26 08:44:55;;;;;;;1.57;0.60;;;18.10;90.10;;;;;;4995864;28;20222;-65
2022/05/26 08:47:22;;;;;;;1.30;0.50;;;18.00;87.80;;;;;;4987595;28;20418;-65
2022/05/26 08:50:01;;;;;;;1.60;0.50;;;17.90;86.00;;;;;;4987364;28;20903;-65
2022/05/26 08:52:36;;;;;;;4.00;0.77;;;17.70;87.90;;;;;;4985158;28;20430;-65
2022/05/26 08:55:08;;;;;;;1.50;0.53;;;17.60;88.10;;;;;;4997024;28;20438;-65
2022/05/26 08:57:41;;;;;;;1.30;0.53;;;17.60;87.60;;;;;;4993838;28;20461;-65
2022/05/26 09:00:17;;;;;;;1.37;0.60;;;17.60;86.80;;;;;;4988934;28;20451;-65
2022/05/26 09:02:43;;;;;;;1.70;0.60;;;17.70;90.00;;;;;;4998894;28;20429;-65
2022/05/26 09:05:20;;;;;;;3.17;1.50;;;17.80;88.70;;;;;;4993937;28;20488;-65
2022/05/26 09:13:44;;;;;;;2.47;0.97;;;18.90;83.40;;;;;;4990457;28;20442;-65
2022/05/26 09:16:11;;;;;;;2.07;0.60;;;19.00;83.40;;;;;;4993510;28;20437;-65
2022/05/26 09:18:38;;;;;;;2.00;0.73;;;19.10;82.90;;;;;;4992978;28;20475;-66
2022/05/26 09:21:17;;;;;;;5.63;0.50;;;19.40;81.00;;;;;;4993476;28;20422;-65
2022/05/26 09:23:46;;;;;;;2.03;0.70;;;19.30;81.50;;;;;;4987282;28;20875;-65
2022/05/26 09:26:17;;;;;;;1.40;0.60;;;19.20;84.10;;;;;;4989788;28;20485;-65
2022/05/26 09:28:54;;;;;;;4.60;0.50;;;19.30;80.00;;;;;;4993781;28;20418;-66
2022/05/26 09:31:23;;;;;;;1.30;0.47;;;19.00;81.60;;;;;;4993387;28;20488;-65
2022/05/26 09:34:08;;;;;;;1.43;0.60;;;18.60;83.10;;;;;;4999470;28;20430;-65
2022/05/26 09:36:50;;;;;;;1.60;0.70;;;18.40;83.80;;;;;;4984513;28;20437;-65
2022/05/26 09:39:37;;;;;;;2.40;0.70;;;18.30;84.20;;;;;;4987746;28;20853;-65
2022/05/26 09:42:17;;;;;;;1.40;0.53;;;18.30;85.80;;;;;;4992014;28;20422;-65
2022/05/26 09:44:52;;;;;;;1.40;0.50;;;18.30;85.80;;;;;;4983475;28;20994;-65
2022/05/26 09:47:32;;;;;;;1.30;0.40;;;18.30;86.50;;;;;;4985983;28;20461;-65
2022/05/26 09:50:01;;;;;;;2.37;0.60;;;18.00;87.40;;;;;;4993764;28;20521;-65
2022/05/26 09:52:38;;;;;;;2.63;0.60;;;18.00;86.60;;;;;;4984643;28;20449;-65
2022/05/26 09:55:10;;;;;;;1.90;0.60;;;17.80;87.00;;;;;;4989702;28;20430;-65
2022/05/26 09:57:36;;;;;;;1.77;0.70;;;17.80;87.80;;;;;;4987968;28;20498;-65
2022/05/26 10:00:12;;;;;;;4.40;1.23;;;17.80;87.40;;;;;;4988368;28;20434;-65
2022/05/26 10:02:40;;;;;;;1.70;0.60;;;17.80;87.00;;;;;;4992573;28;20465;-65
2022/05/26 10:05:06;;;;;;;1.33;0.50;;;17.70;86.10;;;;;;4996591;28;20474;-64
2022/05/26 10:07:34;;;;;;;2.97;0.70;;;17.70;87.30;;;;;;5003581;28;20425;-65
2022/05/26 10:10:12;;;;;;;2.07;0.90;;;17.80;86.00;;;;;;4993440;28;20180;-65
2022/05/26 10:12:50;;;;;;;2.43;0.60;;;17.80;87.00;;;;;;4998214;28;20721;-65
2022/05/26 10:15:19;;;;;;;3.43;0.70;;;17.80;86.80;;;;;;5002085;28;20484;-64
2022/05/26 10:18:15;;;;;;;2.47;0.70;;;17.80;87.20;;;;;;4997030;28;20931;-65
2022/05/26 10:20:58;;;;;;;1.70;0.70;;;17.90;85.30;;;;;;5000176;28;20417;-65
2022/05/26 10:23:52;;;;;;;1.57;0.50;;;17.90;85.30;;;;;;4995991;28;20415;-65
2022/05/26 10:26:32;;;;;;;3.70;0.97;;;18.00;85.00;;;;;;4992306;28;20443;-65
2022/05/26 10:29:18;;;;;;;3.97;0.60;;;18.00;85.60;;;;;;4995770;28;20422;-64
2022/05/26 10:31:57;;;;;;;2.33;0.60;;;18.00;87.30;;;;;;4991646;28;20930;-65
2022/05/26 10:34:37;;;;;;;1.80;0.57;;;18.10;85.30;;;;;;4996774;28;20413;-65
2022/05/26 10:37:22;;;;;;;1.70;0.80;;;18.00;87.10;;;;;;5000264;28;20951;-65
2022/05/26 10:40:03;;;;;;;1.60;0.60;;;17.90;86.50;;;;;;4995353;28;20457;-65
2022/05/26 10:42:45;;;;;;;1.53;0.60;;;17.70;87.30;;;;;;4986933;28;20846;-64
2022/05/26 10:45:13;;;;;;;4.40;0.50;;;17.60;87.80;;;;;;4990664;28;20509;-65
2022/05/26 10:47:52;;;;;;;1.70;0.70;;;17.50;88.90;;;;;;4991085;28;20510;-65
2022/05/26 10:50:39;;;;;;;1.80;0.70;;;17.70;88.90;;;;;;4995343;28;20438;-65
2022/05/26 10:53:37;;;;;;;2.93;0.70;;;17.70;89.40;;;;;;4989715;28;20465;-65
2022/05/26 10:56:50;;;;;;;5.70;0.70;;;17.70;89.30;;;;;;4988508;28;20976;-65
2022/05/26 10:59:36;;;;;;;3.43;1.07;;;17.70;88.10;;;;;;4987816;28;20479;-65
2022/05/26 11:02:22;;;;;;;1.80;0.70;;;17.70;89.40;;;;;;4988012;28;20433;-65
2022/05/26 11:04:53;;;;;;;1.93;0.80;;;17.50;89.80;;;;;;4996197;28;20901;-65
2022/05/26 11:07:46;;;;;;;2.53;0.90;;;17.50;88.90;;;;;;4991552;28;20461;-66
2022/05/26 11:10:19;;;;;;;1.90;0.90;;;17.50;89.70;;;;;;4992168;28;20970;-65
2022/05/26 11:13:00;;;;;;;1.73;0.77;;;17.50;89.80;;;;;;4994904;28;20514;-65
2022/05/26 11:18:36;;;;;;;10.20;1.20;;;17.50;87.50;;;;;;4990171;28;20418;-65
2022/05/26 11:21:02;;;;;;;1.50;0.60;;;17.40;88.80;;;;;;4996936;28;20453;-64
2022/05/26 11:23:35;;;;;;;3.93;0.80;;;17.40;89.80;;;;;;4993928;28;20902;-65
2022/05/26 11:26:12;;;;;;;2.50;1.07;;;17.40;90.30;;;;;;4992049;28;20208;-65
2022/05/26 11:28:49;;;;;;;3.80;0.80;;;17.40;90.80;;;;;;4982348;28;20415;-65
2022/05/26 11:37:18;;;;;;;1.60;0.70;;;17.40;90.40;;;;;;4994251;28;20465;-64
2022/05/26 11:39:45;;;;;;;1.60;0.60;;;17.40;89.40;;;;;;4991440;28;20450;-65
2022/05/26 11:42:39;;;;;;;2.20;0.73;;;17.40;90.30;;;;;;4988244;28;20423;-65
2022/05/26 11:45:14;;;;;;;3.03;0.80;;;17.50;89.60;;;;;;4988359;28;20937;-65
2022/05/26 11:47:58;;;;;;;2.90;1.10;;;17.70;88.50;;;;;;4993645;28;20457;-65
2022/05/26 11:50:42;;;;;;;1.60;0.77;;;17.80;88.30;;;;;;4987460;28;20426;-65
2022/05/26 11:53:34;;;;;;;1.93;0.80;;;17.70;89.80;;;;;;4990951;28;20778;-65
2022/05/26 11:56:24;;;;;;;7.93;1.27;;;17.90;87.50;;;;;;4990061;28;20426;-65
2022/05/26 11:59:26;;;;;;;5.00;0.67;;;18.00;88.00;;;;;;4986429;28;20843;-65
2022/05/26 12:02:00;;;;;;;3.90;0.70;;;18.10;87.70;;;;;;4992335;28;20829;-65
2022/05/26 12:04:30;;;;;;;1.57;0.63;;;18.20;87.40;;;;;;4994491;28;20490;-65
2022/05/26 12:07:00;;;;;;;3.10;0.80;;;18.20;86.60;;;;;;4990216;28;20437;-65
2022/05/26 12:09:49;;;;;;;2.10;0.93;;;18.00;87.00;;;;;;4987904;28;21078;-65
2022/05/26 12:12:17;;;;;;;2.10;0.80;;;17.90;87.00;;;;;;4989455;28;20423;-64
2022/05/26 12:14:47;;;;;;;8.17;2.40;;;17.80;89.00;;;;;;4988825;28;20423;-64
2022/05/26 12:17:31;;;;;;;4.47;3.10;;;18.00;87.00;;;;;;4988825;28;20480;-65
2022/05/26 12:20:05;;;;;;;1.90;0.73;;;18.10;87.70;;;;;;4982606;28;20430;-65
2022/05/26 12:22:51;;;;;;;1.97;0.90;;;18.20;88.10;;;;;;4986450;28;20509;-65
2022/05/26 12:25:20;;;;;;;1.50;0.60;;;18.40;87.70;;;;;;4987974;28;20470;-65
2022/05/26 12:27:48;;;;;;;1.60;0.60;;;18.60;87.30;;;;;;4987566;28;20431;-65
2022/05/26 12:30:31;;;;;;;1.40;0.60;;;18.70;86.70;;;;;;4990698;28;20423;-65
2022/05/26 12:33:10;;;;;;;3.77;0.60;;;18.70;86.50;;;;;;4988643;28;20453;-65
2022/05/26 12:35:52;;;;;;;1.30;0.50;;;18.60;87.60;;;;;;4987708;28;20419;-65
2022/05/26 12:38:55;;;;;;;1.80;0.80;;;18.70;87.70;;;;;;4988017;28;20533;-65
2022/05/26 12:41:45;;;;;;;2.80;0.70;;;18.70;87.50;;;;;;4981518;28;20438;-65
2022/05/26 12:44:48;;;;;;;2.13;0.80;;;18.70;87.30;;;;;;4987219;28;20466;-65
2022/05/26 12:47:16;;;;;;;1.40;0.60;;;18.90;86.70;;;;;;4987650;28;20415;-65
2022/05/26 12:50:12;;;;;;;1.93;0.80;;;19.10;85.10;;;;;;4988747;28;20430;-65
2022/05/26 12:53:00;;;;;;;3.00;0.80;;;19.10;85.10;;;;;;4986084;28;20458;-65
2022/05/26 12:55:41;;;;;;;2.00;0.80;;;19.20;84.80;;;;;;4987886;28;20541;-65
2022/05/26 12:58:20;;;;;;;2.10;0.90;;;19.20;83.40;;;;;;4988203;28;20423;-65
2022/05/26 13:00:48;;;;;;;1.50;0.60;;;19.10;84.30;;;;;;4986376;28;20437;-65
2022/05/26 13:03:13;;;;;;;9.03;0.87;;;19.10;86.00;;;;;;4987996;28;20431;-65
2022/05/26 13:05:46;;;;;;;2.00;0.70;;;19.20;86.10;;;;;;4988139;28;20855;-65
2022/05/26 13:08:20;;;;;;;1.80;0.80;;;19.50;84.90;;;;;;4987952;28;20222;-65
2022/05/26 13:10:51;;;;;;;2.03;0.50;;;19.70;85.10;;;;;;4989491;28;20911;-65
2022/05/26 13:13:24;;;;;;;1.30;0.60;;;19.90;83.60;;;;;;4987817;28;20481;-65
2022/05/26 13:15:50;;;;;;;1.77;0.90;;;19.90;84.40;;;;;;4989240;28;20514;-64
2022/05/26 13:18:18;;;;;;;1.73;0.67;;;19.60;85.00;;;;;;4987662;28;20422;-65
2022/05/26 13:20:44;;;;;;;1.50;0.70;;;19.40;85.60;;;;;;4991899;28;20191;-65
2022/05/26 13:23:10;;;;;;;3.00;1.00;;;19.30;87.50;;;;;;4986535;28;20462;-65
2022/05/26 13:25:36;;;;;;;2.73;1.03;;;19.30;85.90;;;;;;4987780;28;20880;-64
2022/05/26 13:28:08;;;;;;;2.07;0.70;;;19.20;85.60;;;;;;4993917;28;20659;-65
2022/05/26 13:33:39;;;;;;;2.00;0.80;;;19.10;85.50;;;;;;4990822;28;20422;-65
2022/05/26 13:36:05;;;;;;;1.97;0.60;;;19.20;85.80;;;;;;4987046;28;20891;-65
2022/05/26 13:38:33;;;;;;;1.77;0.77;;;19.30;83.80;;;;;;4987886;28;20428;-65
2022/05/26 13:41:02;;;;;;;3.77;0.80;;;19.00;85.10;;;;;;4985410;28;20465;-65
2022/05/26 13:43:30;;;;;;;2.00;0.90;;;19.10;85.70;;;;;;4991395;28;20556;-65
2022/05/26 13:45:56;;;;;;;5.43;0.73;;;19.10;85.50;;;;;;4991238;28;20478;-65
2022/05/26 13:48:37;;;;;;;1.60;0.80;;;19.10;85.00;;;;;;4993242;28;20467;-64
2022/05/26 13:51:13;;;;;;;1.47;0.63;;;19.10;84.30;;;;;;4998202;28;20453;-65